createdAt,value
2022-09-03T00:00:00.973Z,100705.25
2022-09-03T00:02:51.814Z,100703.16
2022-09-03T00:05:47.770Z,100709.97
2022-09-03T00:08:32.208Z,100710.56
2022-09-03T00:11:33.602Z,100702.66
2022-09-03T00:14:16.367Z,100700.97
2022-09-03T00:17:02.050Z,100689.09
2022-09-03T00:19:36.671Z,100689.25
2022-09-03T00:22:15.407Z,100687.97
2022-09-03T00:24:47.181Z,100693.25
2022-09-03T00:27:19.486Z,100683.72
2022-09-03T00:29:59.811Z,100684.47
2022-09-03T00:32:58.778Z,100688.56
2022-09-03T00:35:37.469Z,100688.94
2022-09-03T00:38:08.667Z,100688.03
2022-09-03T00:41:09.243Z,100696.63
2022-09-03T00:43:42.373Z,100701.47
2022-09-03T00:46:32.185Z,100686.91
2022-09-03T00:49:20.161Z,100690.09
2022-09-03T00:52:05.566Z,100692.94
2022-09-03T00:54:51.021Z,100692.00
2022-09-03T00:57:25.952Z,100682.81
2022-09-03T00:59:58.341Z,100679.81
2022-09-03T01:03:06.484Z,100684.66
2022-09-03T01:06:04.910Z,100686.53
2022-09-03T01:09:13.340Z,100679.88
2022-09-03T01:12:00.716Z,100683.41
2022-09-03T01:14:56.830Z,100690.13
2022-09-03T01:17:27.159Z,100681.09
2022-09-03T01:20:21.746Z,100688.88
2022-09-03T01:23:09.862Z,100687.13
2022-09-03T01:26:18.292Z,100684.78
2022-09-03T01:29:09.217Z,100690.84
2022-09-03T01:32:23.263Z,100694.81
2022-09-03T01:35:12.633Z,100687.94
2022-09-03T01:37:48.647Z,100682.31
2022-09-03T01:40:33.425Z,100684.16
2022-09-03T01:43:24.482Z,100680.31
2022-09-03T01:46:21.670Z,100682.38
2022-09-03T01:49:00.419Z,100690.22
2022-09-03T01:51:32.411Z,100693.16
2022-09-03T01:54:21.001Z,100690.66
2022-09-03T01:57:04.496Z,100677.88
2022-09-03T01:59:50.717Z,100680.16
2022-09-03T02:02:26.885Z,100676.19
2022-09-03T02:05:19.508Z,100669.22
2022-09-03T02:08:11.595Z,100663.47
2022-09-03T02:10:55.576Z,100665.97
2022-09-03T02:13:40.464Z,100675.81
2022-09-03T02:16:18.306Z,100677.28
2022-09-03T02:19:03.689Z,100676.00
2022-09-03T02:21:40.927Z,100666.94
2022-09-03T02:24:11.587Z,100672.44
2022-09-03T02:26:41.498Z,100670.16
2022-09-03T02:29:13.427Z,100662.13
2022-09-03T02:31:43.566Z,100669.59
2022-09-03T02:34:13.719Z,100676.22
2022-09-03T02:36:49.012Z,100663.84
2022-09-03T02:39:19.353Z,100663.03
2022-09-03T02:41:57.365Z,100659.28
2022-09-03T02:44:34.626Z,100651.50
2022-09-03T02:47:09.518Z,100649.38
2022-09-03T02:49:40.061Z,100640.78
2022-09-03T02:52:13.527Z,100630.84
2022-09-03T02:54:46.413Z,100630.69
2022-09-03T02:57:23.847Z,100625.06
2022-09-03T02:59:58.371Z,100626.81
2022-09-03T03:02:28.817Z,100624.69
2022-09-03T03:04:59.426Z,100630.72
2022-09-03T03:07:33.843Z,100632.69
2022-09-03T03:10:04.187Z,100628.63
2022-09-03T03:12:33.785Z,100623.53
2022-09-03T03:15:04.011Z,100612.72
2022-09-03T03:17:34.404Z,100619.53
2022-09-03T03:20:04.678Z,100616.84
2022-09-03T03:22:34.744Z,100613.28
2022-09-03T03:25:04.687Z,100605.75
2022-09-03T03:27:34.755Z,100604.19
2022-09-03T03:30:04.793Z,100602.34
2022-09-03T03:32:34.800Z,100591.59
2022-09-03T03:35:05.522Z,100600.25
2022-09-03T03:37:37.155Z,100600.06
2022-09-03T03:40:08.845Z,100597.13
2022-09-03T03:42:39.561Z,100590.38
2022-09-03T03:45:13.593Z,100590.97
2022-09-03T03:47:43.856Z,100592.88
2022-09-03T03:50:13.880Z,100585.00
2022-09-03T03:52:45.040Z,100578.53
2022-09-03T03:55:15.879Z,100578.28
2022-09-03T03:57:47.190Z,100571.88
2022-09-03T04:00:18.618Z,100571.13
2022-09-03T04:02:48.988Z,100557.88
2022-09-03T04:05:23.075Z,100555.72
2022-09-03T04:07:54.122Z,100562.22
2022-09-03T04:10:24.344Z,100561.69
2022-09-03T04:12:57.518Z,100559.00
2022-09-03T04:15:27.862Z,100556.28
2022-09-03T04:17:57.834Z,100548.16
2022-09-03T04:20:27.747Z,100553.28
2022-09-03T04:22:57.776Z,100546.22
2022-09-03T04:25:27.761Z,100540.50
2022-09-03T04:27:57.742Z,100531.75
2022-09-03T04:30:29.055Z,100523.88
2022-09-03T04:33:01.093Z,100516.81
2022-09-03T04:35:33.120Z,100513.88
2022-09-03T04:38:06.954Z,100525.25
2022-09-03T04:40:37.238Z,100523.94
2022-09-03T04:43:10.391Z,100521.78
2022-09-03T04:45:41.372Z,100521.56
2022-09-03T04:48:13.580Z,100517.19
2022-09-03T04:50:44.668Z,100507.69
2022-09-03T04:53:15.239Z,100512.00
2022-09-03T04:55:46.139Z,100509.91
2022-09-03T04:58:16.465Z,100509.38
2022-09-03T05:00:47.662Z,100508.88
2022-09-03T05:03:19.935Z,100501.88
2022-09-03T05:05:58.181Z,100499.22
2022-09-03T05:08:28.772Z,100506.56
2022-09-03T05:11:02.790Z,100497.66
2022-09-03T05:13:34.937Z,100500.94
2022-09-03T05:16:08.541Z,100502.06
2022-09-03T05:18:39.725Z,100489.91
2022-09-03T05:21:15.627Z,100491.03
2022-09-03T05:23:48.451Z,100500.50
2022-09-03T05:26:22.803Z,100495.63
2022-09-03T05:28:58.381Z,100478.28
2022-09-03T05:31:32.802Z,100476.66
2022-09-03T05:34:07.723Z,100482.81
2022-09-03T05:36:40.303Z,100482.50
2022-09-03T05:39:10.668Z,100483.56
2022-09-03T05:41:41.356Z,100473.25
2022-09-03T05:44:11.526Z,100466.50
2022-09-03T05:46:41.822Z,100468.97
2022-09-03T05:49:13.196Z,100473.31
2022-09-03T05:51:45.174Z,100466.63
2022-09-03T05:54:15.743Z,100460.41
2022-09-03T05:56:46.203Z,100458.00
2022-09-03T05:59:16.727Z,100454.50
2022-09-03T06:12:23.433Z,100439.25
2022-09-03T06:14:54.349Z,100440.81
2022-09-03T06:17:26.383Z,100426.44
2022-09-03T06:19:56.531Z,100431.03
2022-09-03T06:22:29.766Z,100426.97
2022-09-03T06:25:00.157Z,100412.94
2022-09-03T06:27:32.018Z,100406.72
2022-09-03T06:30:02.161Z,100418.13
2022-09-03T06:32:33.082Z,100405.66
2022-09-03T06:35:03.385Z,100401.59
2022-09-03T06:37:33.585Z,100394.25
2022-09-03T06:40:04.505Z,100389.09
2022-09-03T06:42:35.565Z,100397.47
2022-09-03T06:45:08.355Z,100393.06
2022-09-03T06:47:43.363Z,100394.13
2022-09-03T06:50:13.671Z,100389.72
2022-09-03T06:52:43.714Z,100387.53
2022-09-03T06:55:13.103Z,100381.28
2022-09-03T06:57:43.239Z,100371.50
2022-09-03T07:00:14.105Z,100364.66
2022-09-03T07:02:45.056Z,100370.59
2022-09-03T07:05:18.760Z,100365.13
2022-09-03T07:07:49.336Z,100359.72
2022-09-03T07:10:22.388Z,100353.16
2022-09-03T07:12:52.769Z,100351.25
2022-09-03T07:15:23.218Z,100347.16
2022-09-03T07:17:53.273Z,100342.31
2022-09-03T07:20:23.811Z,100335.03
2022-09-03T07:22:58.069Z,100337.47
2022-09-03T07:25:28.683Z,100332.88
2022-09-03T07:27:59.547Z,100335.03
2022-09-03T07:30:30.405Z,100332.59
2022-09-03T07:33:05.401Z,100321.78
2022-09-03T07:35:39.097Z,100321.78
2022-09-03T07:38:10.532Z,100322.78
2022-09-03T07:40:41.402Z,100320.59
2022-09-03T07:43:12.171Z,100319.00
2022-09-03T07:45:43.186Z,100317.88
2022-09-03T07:48:14.286Z,100310.28
2022-09-03T07:50:46.537Z,100312.41
2022-09-03T07:53:18.696Z,100311.00
2022-09-03T07:55:50.879Z,100316.13
2022-09-03T07:58:25.358Z,100323.38
2022-09-03T08:00:58.553Z,100317.41
2022-09-03T08:03:29.272Z,100330.06
2022-09-03T08:06:06.633Z,100342.06
2022-09-03T08:08:38.613Z,100346.63
2022-09-03T08:11:13.732Z,100357.91
2022-09-03T08:13:47.036Z,100367.00
2022-09-03T08:16:21.107Z,100371.06
2022-09-03T08:18:52.541Z,100370.53
2022-09-03T08:21:23.254Z,100367.81
2022-09-03T08:23:54.326Z,100369.03
2022-09-03T08:26:25.176Z,100363.13
2022-09-03T08:28:55.419Z,100361.97
2022-09-03T08:31:30.465Z,100352.41
2022-09-03T08:34:07.852Z,100348.38
2022-09-03T08:36:40.692Z,100338.81
2022-09-03T08:39:13.199Z,100343.50
2022-09-03T08:41:53.553Z,100350.97
2022-09-03T08:44:33.350Z,100346.88
2022-09-03T08:47:22.282Z,100343.59
2022-09-03T08:50:00.503Z,100333.94
2022-09-03T08:52:34.080Z,100340.13
2022-09-03T08:55:46.028Z,100339.88
2022-09-03T08:58:24.809Z,100338.22
2022-09-03T09:01:03.414Z,100341.75
2022-09-03T09:03:44.980Z,100342.56
2022-09-03T09:06:33.300Z,100335.66
2022-09-03T09:09:21.057Z,100347.56
2022-09-03T09:12:18.209Z,100396.09
2022-09-03T09:15:09.335Z,100421.59
2022-09-03T09:17:42.225Z,100425.47
2022-09-03T09:20:25.226Z,100435.50
2022-09-03T09:23:10.487Z,100422.19
2022-09-03T09:25:51.395Z,100420.63
2022-09-03T09:28:31.071Z,100434.19
2022-09-03T09:31:05.907Z,100437.78
2022-09-03T09:33:37.068Z,100429.00
2022-09-03T09:36:13.018Z,100415.22
2022-09-03T09:38:44.482Z,100406.56
2022-09-03T09:41:23.377Z,100411.09
2022-09-03T09:44:07.101Z,100401.44
2022-09-03T09:46:43.463Z,100409.72
2022-09-03T09:49:46.402Z,100411.81
2022-09-03T09:52:19.062Z,100409.78
2022-09-03T09:54:49.615Z,100410.47
2022-09-03T09:57:27.474Z,100418.16
2022-09-03T10:00:14.722Z,100417.78
2022-09-03T10:02:54.551Z,100415.81
2022-09-03T10:05:41.869Z,100406.09
2022-09-03T10:08:23.235Z,100401.78
2022-09-03T10:10:53.760Z,100396.41
2022-09-03T10:13:41.759Z,100397.81
2022-09-03T10:16:36.325Z,100384.38
2022-09-03T10:19:08.897Z,100393.25
2022-09-03T10:22:02.607Z,100387.28
2022-09-03T10:24:49.939Z,100392.31
2022-09-03T10:27:20.200Z,100384.47
2022-09-03T10:29:51.577Z,100388.59
2022-09-03T10:32:38.002Z,100389.16
2022-09-03T10:35:30.647Z,100394.91
2022-09-03T10:38:21.914Z,100393.88
2022-09-03T10:41:26.439Z,100392.81
2022-09-03T10:44:07.692Z,100402.50
2022-09-03T10:47:15.877Z,100404.59
2022-09-03T10:50:02.891Z,100404.59
2022-09-03T10:53:08.366Z,100404.25
2022-09-03T10:55:53.062Z,100413.34
2022-09-03T10:58:26.468Z,100398.03
2022-09-03T11:01:04.638Z,100394.75
2022-09-03T11:03:58.255Z,100397.44
2022-09-03T11:06:32.124Z,100399.09
2022-09-03T11:09:41.166Z,100393.50
2022-09-03T11:12:56.974Z,100399.69
2022-09-03T11:16:13.785Z,100404.84
2022-09-03T11:19:13.335Z,100406.22
2022-09-03T11:21:45.257Z,100401.66
2022-09-03T11:24:18.300Z,100393.38
2022-09-03T11:26:58.359Z,100391.28
2022-09-03T11:29:43.107Z,100396.22
2022-09-03T11:32:23.120Z,100389.56
2022-09-03T11:34:55.877Z,100392.25
2022-09-03T11:37:25.885Z,100405.25
2022-09-03T11:40:09.955Z,100405.00
2022-09-03T11:42:45.785Z,100407.25
2022-09-03T11:45:25.214Z,100414.50
2022-09-03T11:47:56.220Z,100415.53
2022-09-03T11:53:13.819Z,100406.88
2022-09-03T11:56:17.787Z,100398.59
2022-09-03T11:59:01.467Z,100402.91
2022-09-03T12:01:33.701Z,100413.44
2022-09-03T12:04:08.277Z,100418.00
2022-09-03T12:07:00.632Z,100423.16
2022-09-03T12:10:01.419Z,100425.84
2022-09-03T12:12:47.252Z,100432.84
2022-09-03T12:15:29.840Z,100426.63
2022-09-03T12:18:22.178Z,100428.28
2022-09-03T12:20:59.930Z,100430.97
2022-09-03T12:23:51.556Z,100433.66
2022-09-03T12:26:28.667Z,100435.28
2022-09-03T12:29:01.126Z,100438.22
2022-09-03T12:31:40.050Z,100435.53
2022-09-03T12:34:16.491Z,100434.69
2022-09-03T12:36:47.609Z,100443.00
2022-09-03T12:42:33.028Z,100433.53
2022-09-03T12:45:17.128Z,100433.53
2022-09-03T12:47:47.330Z,100438.69
2022-09-03T12:50:20.055Z,100435.16
2022-09-03T12:53:01.362Z,100437.03
2022-09-03T12:55:48.848Z,100444.88
2022-09-03T12:58:20.573Z,100442.19
2022-09-03T13:00:59.972Z,100446.50
2022-09-03T13:04:04.376Z,100446.75
2022-09-03T13:07:02.309Z,100447.78
2022-09-03T13:09:35.607Z,100451.75
2022-09-03T13:12:07.166Z,100445.75
2022-09-03T13:14:50.679Z,100439.13
2022-09-03T13:17:22.912Z,100446.16
2022-09-03T13:20:24.327Z,100437.25
2022-09-03T13:23:08.064Z,100430.25
2022-09-03T13:25:48.181Z,100433.13
2022-09-03T13:28:52.950Z,100429.28
2022-09-03T13:31:41.113Z,100430.53
2022-09-03T13:34:24.095Z,100433.47
2022-09-03T13:37:00.688Z,100428.53
2022-09-03T13:39:45.771Z,100436.00
2022-09-03T13:42:29.187Z,100431.09
2022-09-03T13:45:24.382Z,100436.69
2022-09-03T13:48:45.740Z,100432.38
2022-09-03T13:51:20.674Z,100431.56
2022-09-03T13:54:36.387Z,100437.97
2022-09-03T13:57:20.369Z,100420.22
2022-09-03T14:00:05.094Z,100425.81
2022-09-03T14:02:58.525Z,100422.56
2022-09-03T14:05:50.508Z,100422.56
2022-09-03T14:09:04.612Z,100412.03
2022-09-03T14:11:59.722Z,100416.34
2022-09-03T14:14:43.925Z,100416.56
2022-09-03T14:17:40.048Z,100421.13
2022-09-03T14:20:16.066Z,100430.25
2022-09-03T14:22:59.018Z,100437.22
2022-09-03T14:25:30.344Z,100435.84
2022-09-03T14:28:39.950Z,100433.16
2022-09-03T14:31:11.243Z,100435.84
2022-09-03T14:33:41.712Z,100433.16
2022-09-03T14:36:46.346Z,100426.13
2022-09-03T14:39:57.726Z,100417.03
2022-09-03T14:43:03.242Z,100408.13
2022-09-03T14:45:40.521Z,100405.47
2022-09-03T14:48:26.204Z,100405.47
2022-09-03T14:51:25.881Z,100404.41
2022-09-03T14:54:31.196Z,100398.25
2022-09-03T14:57:33.457Z,100405.22
2022-09-03T15:00:19.954Z,100412.25
2022-09-03T15:02:57.116Z,100404.41
2022-09-03T15:06:05.245Z,100411.44
2022-09-03T15:09:17.308Z,100406.06
2022-09-03T15:11:57.166Z,100404.41
2022-09-03T15:14:58.966Z,100403.59
2022-09-03T15:17:37.787Z,100387.94
2022-09-03T15:20:14.228Z,100397.63
2022-09-03T15:22:59.665Z,100392.50
2022-09-03T15:25:45.703Z,100402.41
2022-09-03T15:28:37.466Z,100396.00
2022-09-03T15:31:30.889Z,100405.69
2022-09-03T15:34:06.766Z,100404.66
2022-09-03T15:36:52.112Z,100405.69
2022-09-03T15:39:35.717Z,100398.47
2022-09-03T15:42:31.733Z,100391.22
2022-09-03T15:45:19.078Z,100392.25
2022-09-03T15:47:56.034Z,100397.63
2022-09-03T15:50:38.458Z,100393.09
2022-09-03T15:53:28.224Z,100389.81
2022-09-03T15:56:30.426Z,100386.28
2022-09-03T15:59:24.312Z,100389.81
2022-09-03T16:02:17.540Z,100375.56
2022-09-03T16:04:57.682Z,100384.19
2022-09-03T16:08:11.935Z,100382.56
2022-09-03T16:11:20.183Z,100380.47
2022-09-03T16:14:06.835Z,100378.00
2022-09-03T16:17:01.659Z,100366.69
2022-09-03T16:20:05.550Z,100371.25
2022-09-03T16:22:45.341Z,100356.97
2022-09-03T16:25:56.721Z,100352.44
2022-09-03T16:28:48.790Z,100356.75
2022-09-03T16:31:38.082Z,100353.25
2022-09-03T16:34:25.343Z,100348.69
2022-09-03T16:37:06.350Z,100349.53
2022-09-03T16:40:26.976Z,100341.72
2022-09-03T16:43:39.258Z,100335.28
2022-09-03T16:46:39.579Z,100337.97
2022-09-03T16:49:38.132Z,100335.28
2022-09-03T16:52:15.054Z,100334.47
2022-09-03T16:55:20.410Z,100332.59
2022-09-03T16:58:24.528Z,100322.34
2022-09-03T17:01:07.100Z,100325.59
2022-09-03T17:04:11.895Z,100321.03
2022-09-03T17:06:49.941Z,100319.41
2022-09-03T17:09:54.244Z,100312.19
2022-09-03T17:13:13.284Z,100304.94
2022-09-03T17:15:51.670Z,100301.66
2022-09-03T17:18:24.713Z,100298.75
2022-09-03T17:21:20.336Z,100283.44
2022-09-03T17:24:27.749Z,100285.91
2022-09-03T17:27:47.910Z,100269.81
2022-09-03T17:30:23.927Z,100271.41
2022-09-03T17:33:10.333Z,100274.72
2022-09-03T17:35:56.248Z,100273.88
2022-09-03T17:39:04.342Z,100275.53
2022-09-03T17:41:54.564Z,100275.53
2022-09-03T17:44:27.331Z,100270.97
2022-09-03T17:47:00.275Z,100268.28
2022-09-03T17:50:03.617Z,100262.69
2022-09-03T17:53:18.928Z,100266.19
2022-09-03T17:56:25.628Z,100268.88
2022-09-03T17:59:12.628Z,100267.81
2022-09-03T18:02:10.378Z,100261.41
2022-09-03T18:04:56.270Z,100261.16
2022-09-03T18:07:33.743Z,100266.53
2022-09-03T18:10:22.159Z,100254.97
2022-09-03T18:13:14.298Z,100256.63
2022-09-03T18:16:11.336Z,100252.28
2022-09-03T18:18:48.972Z,100249.03
2022-09-03T18:21:48.917Z,100256.84
2022-09-03T18:25:01.493Z,100253.38
2022-09-03T18:28:10.175Z,100251.25
2022-09-03T18:30:58.524Z,100253.09
2022-09-03T18:33:47.600Z,100259.31
2022-09-03T18:36:35.908Z,100251.50
2022-09-03T18:39:46.753Z,100256.63
2022-09-03T18:43:11.182Z,100253.94
2022-09-03T18:47:16.483Z,100246.13
2022-09-03T18:49:39.292Z,100256.06
2022-09-03T18:52:38.295Z,100256.06
2022-09-03T18:55:40.441Z,100257.91
2022-09-03T18:58:49.456Z,100259.78
2022-09-03T19:01:52.079Z,100249.03
2022-09-03T19:05:15.039Z,100252.75
2022-09-03T19:08:07.228Z,100251.13
2022-09-03T19:11:09.943Z,100233.38
2022-09-03T19:14:01.378Z,100238.16
2022-09-03T19:17:08.304Z,100235.13
2022-09-03T19:20:10.522Z,100235.34
2022-09-03T19:23:01.153Z,100234.78
2022-09-03T19:25:50.816Z,100233.13
2022-09-03T19:28:49.126Z,100241.19
2022-09-03T19:31:55.857Z,100237.69
2022-09-03T19:35:09.177Z,100228.22
2022-09-03T19:38:38.293Z,100227.41
2022-09-03T19:41:47.329Z,100225.19
2022-09-03T19:44:49.704Z,100220.84
2022-09-03T19:47:52.934Z,100221.91
2022-09-03T19:50:47.905Z,100224.84
2022-09-03T19:53:37.701Z,100219.69
2022-09-03T19:56:42.428Z,100220.72
2022-09-03T19:59:38.760Z,100220.97
2022-09-03T20:02:27.078Z,100226.56
2022-09-03T20:05:31.370Z,100232.75
2022-09-03T20:08:21.283Z,100225.75
2022-09-03T20:10:55.213Z,100224.72
2022-09-03T20:13:25.691Z,100221.41
2022-09-03T20:16:25.220Z,100224.09
2022-09-03T20:19:13.536Z,100220.38
2022-09-03T20:21:51.284Z,100216.03
2022-09-03T20:24:30.305Z,100209.88
2022-09-03T20:27:28.510Z,100202.03
2022-09-03T20:30:05.711Z,100196.44
2022-09-03T20:32:55.778Z,100195.63
2022-09-03T20:36:08.132Z,100197.97
2022-09-03T20:38:59.870Z,100207.41
2022-09-03T20:41:59.018Z,100200.41
2022-09-03T20:44:50.598Z,100215.09
2022-09-03T20:47:46.833Z,100216.16
2022-09-03T20:50:45.332Z,100229.09
2022-09-03T20:53:44.542Z,100213.13
2022-09-03T20:56:53.686Z,100220.25
2022-09-03T20:59:48.079Z,100208.13
2022-09-03T21:02:42.950Z,100218.63
2022-09-03T21:05:13.195Z,100226.41
2022-09-03T21:07:46.806Z,100224.56
2022-09-03T21:10:34.127Z,100224.00
2022-09-03T21:13:25.047Z,100232.63
2022-09-03T21:16:16.527Z,100233.44
2022-09-03T21:19:01.788Z,100236.13
2022-09-03T21:22:02.280Z,100241.72
2022-09-03T21:25:01.420Z,100233.44
2022-09-03T21:27:41.589Z,100244.53
2022-09-03T21:30:16.483Z,100233.00
2022-09-03T21:33:04.760Z,100245.34
2022-09-03T21:36:01.633Z,100246.41
2022-09-03T21:38:36.197Z,100248.25
2022-09-03T21:41:08.935Z,100253.03
2022-09-03T21:44:07.498Z,100250.34
2022-09-03T21:47:01.649Z,100250.34
2022-09-03T21:49:40.480Z,100248.16
2022-09-03T21:52:28.381Z,100252.22
2022-09-03T21:54:58.393Z,100243.81
2022-09-03T21:57:59.904Z,100242.53
2022-09-03T22:00:33.910Z,100236.56
2022-09-03T22:03:11.807Z,100233.06
2022-09-03T22:06:09.719Z,100229.38
2022-09-03T22:08:56.081Z,100217.78
2022-09-03T22:11:46.820Z,100214.28
2022-09-03T22:14:22.463Z,100212.41
2022-09-03T22:17:05.924Z,100210.09
2022-09-03T22:19:38.802Z,100213.34
2022-09-03T22:22:14.610Z,100215.00
2022-09-03T22:25:06.021Z,100211.28
2022-09-03T22:28:02.058Z,100226.31
2022-09-03T22:30:42.363Z,100227.38
2022-09-03T22:33:41.802Z,100224.22
2022-09-03T22:36:22.825Z,100231.25
2022-09-03T22:39:17.046Z,100234.50
2022-09-03T22:42:34.231Z,100240.94
2022-09-03T22:45:41.990Z,100240.69
2022-09-03T22:48:24.274Z,100243.16
2022-09-03T22:51:00.629Z,100243.16
2022-09-03T22:54:07.693Z,100247.47
2022-09-03T22:56:42.455Z,100241.88
2022-09-03T22:59:24.166Z,100243.16
2022-09-03T23:02:13.260Z,100241.31
2022-09-03T23:05:00.658Z,100234.06
2022-09-03T23:08:08.029Z,100230.31
2022-09-03T23:10:45.297Z,100227.88
2022-09-03T23:13:32.969Z,100225.19
2022-09-03T23:16:25.567Z,100224.13
2022-09-03T23:18:56.026Z,100223.91
2022-09-03T23:21:55.385Z,100219.13
2022-09-03T23:24:36.970Z,100218.06
2022-09-03T23:27:12.487Z,100226.50
2022-09-03T23:29:50.541Z,100219.00
2022-09-03T23:32:20.898Z,100230.09
2022-09-03T23:34:51.588Z,100232.78
2022-09-03T23:37:35.913Z,100222.63
2022-09-03T23:40:15.057Z,100228.00
2022-09-03T23:42:51.125Z,100227.19
2022-09-03T23:45:44.989Z,100212.72
2022-09-03T23:48:38.880Z,100210.84
2022-09-03T23:51:40.579Z,100207.94
2022-09-03T23:54:41.129Z,100207.72
2022-09-03T23:57:34.647Z,100206.88
